createdAt,value
2023-04-07T00:02:22.295Z,42.85
2023-04-07T00:05:35.405Z,41.95
2023-04-07T00:08:47.776Z,44.00
2023-04-07T00:12:02.740Z,44.95
2023-04-07T00:15:15.193Z,44.13
2023-04-07T00:18:27.840Z,40.55
2023-04-07T00:21:41.098Z,45.03
2023-04-07T00:24:54.547Z,41.72
2023-04-07T00:28:06.932Z,43.53
2023-04-07T00:31:19.672Z,41.13
2023-04-07T00:34:32.103Z,42.45
2023-04-07T00:37:44.815Z,45.45
2023-04-07T00:41:00.047Z,41.72
2023-04-07T00:44:13.072Z,43.50
2023-04-07T00:47:25.536Z,45.67
2023-04-07T00:50:38.282Z,49.00
2023-04-07T00:53:50.715Z,45.42
2023-04-07T00:57:03.436Z,39.80
2023-04-07T01:00:15.940Z,42.88
2023-04-07T01:03:35.015Z,43.38
2023-04-07T01:06:48.599Z,43.30
2023-04-07T01:10:06.616Z,41.88
2023-04-07T01:13:53.334Z,50.28
2023-04-07T01:17:07.477Z,43.42
2023-04-07T01:20:21.423Z,44.33
2023-04-07T01:24:12.890Z,48.63
2023-04-07T01:27:37.003Z,44.83
2023-04-07T01:30:49.639Z,43.20
2023-04-07T01:34:02.042Z,47.70
2023-04-07T01:37:14.796Z,45.83
2023-04-07T01:40:27.354Z,49.83
2023-04-07T01:43:41.659Z,46.97
2023-04-07T01:46:54.543Z,47.70
2023-04-07T01:50:09.372Z,45.88
2023-04-07T01:53:21.810Z,47.67
2023-04-07T01:56:34.417Z,46.55
2023-04-07T01:59:48.245Z,46.58
2023-04-07T02:03:07.873Z,46.42
2023-04-07T02:06:23.377Z,48.50
2023-04-07T02:09:36.411Z,49.88
2023-04-07T02:12:49.117Z,49.45
2023-04-07T02:16:02.579Z,48.95
2023-04-07T02:19:15.302Z,46.92
2023-04-07T02:22:27.636Z,49.58
2023-04-07T02:25:40.423Z,51.83
2023-04-07T02:28:53.042Z,51.45
2023-04-07T02:32:06.559Z,46.83
2023-04-07T02:35:19.445Z,51.47
2023-04-07T02:38:32.336Z,48.22
2023-04-07T02:41:44.996Z,47.17
2023-04-07T02:44:57.404Z,49.47
2023-04-07T02:48:10.075Z,56.75
2023-04-07T02:51:22.483Z,56.28
2023-04-07T02:54:35.097Z,46.63
2023-04-07T02:57:47.473Z,49.47
2023-04-07T03:01:01.338Z,48.85
2023-04-07T03:04:14.011Z,43.55
2023-04-07T03:07:28.511Z,50.88
2023-04-07T03:10:41.204Z,44.45
2023-04-07T03:13:54.341Z,52.95
2023-04-07T03:17:07.083Z,45.75
2023-04-07T03:20:20.737Z,43.80
2023-04-07T03:23:33.217Z,52.60
2023-04-07T03:26:46.395Z,50.67
2023-04-07T03:29:59.454Z,51.60
2023-04-07T03:33:12.651Z,50.60
2023-04-07T03:36:25.092Z,44.25
2023-04-07T03:39:39.323Z,45.47
2023-04-07T03:42:52.710Z,46.45
2023-04-07T03:46:05.716Z,53.03
2023-04-07T03:49:18.157Z,48.28
2023-04-07T03:52:31.031Z,49.53
2023-04-07T03:55:44.563Z,48.63
2023-04-07T03:58:57.960Z,53.22
2023-04-07T04:02:11.469Z,61.78
2023-04-07T04:05:24.921Z,59.38
2023-04-07T04:08:37.585Z,61.67
2023-04-07T04:11:51.155Z,62.13
2023-04-07T04:15:04.102Z,53.65
2023-04-07T04:18:17.422Z,49.22
2023-04-07T04:21:31.280Z,47.45
2023-04-07T04:24:44.046Z,46.42
2023-04-07T04:27:56.632Z,50.35
2023-04-07T04:31:10.647Z,55.08
2023-04-07T04:34:23.600Z,73.53
2023-04-07T04:37:36.733Z,76.87
2023-04-07T04:40:49.886Z,57.85
2023-04-07T04:44:03.063Z,48.75
2023-04-07T04:47:16.425Z,48.60
2023-04-07T04:50:29.230Z,47.55
2023-04-07T04:53:41.972Z,52.17
2023-04-07T04:56:56.578Z,47.03
2023-04-07T05:00:10.069Z,48.00
2023-04-07T05:03:26.447Z,49.50
2023-04-07T05:06:39.593Z,49.90
2023-04-07T05:09:52.642Z,48.92
2023-04-07T05:13:05.496Z,40.40
2023-04-07T05:16:18.375Z,45.05
2023-04-07T05:19:31.153Z,43.42
2023-04-07T05:22:44.401Z,43.63
2023-04-07T05:25:57.705Z,48.83
2023-04-07T05:29:11.012Z,53.63
2023-04-07T05:32:24.802Z,60.97
2023-04-07T05:35:37.998Z,61.95
2023-04-07T05:38:50.634Z,56.78
2023-04-07T05:42:04.050Z,52.10
2023-04-07T05:45:16.594Z,54.30
2023-04-07T05:48:30.034Z,45.33
2023-04-07T05:51:42.425Z,52.95
2023-04-07T05:54:56.525Z,54.72
2023-04-07T05:58:11.466Z,57.42
2023-04-07T06:01:25.803Z,58.25
2023-04-07T06:04:39.720Z,51.50
2023-04-07T06:07:54.599Z,51.63
2023-04-07T06:11:09.628Z,54.35
2023-04-07T06:14:21.991Z,55.38
2023-04-07T06:17:35.089Z,50.85
2023-04-07T06:20:47.450Z,49.78
2023-04-07T06:24:00.412Z,44.72
2023-04-07T06:27:13.305Z,48.53
2023-04-07T06:30:25.997Z,43.35
2023-04-07T06:33:38.492Z,41.15
2023-04-07T06:36:51.230Z,48.22
2023-04-07T06:40:03.718Z,45.33
2023-04-07T06:43:16.349Z,42.75
2023-04-07T06:46:29.208Z,43.80
2023-04-07T06:49:41.970Z,42.80
2023-04-07T06:52:54.362Z,50.53
2023-04-07T06:56:10.795Z,47.35
2023-04-07T06:59:23.269Z,46.63
2023-04-07T07:02:37.565Z,44.05
2023-04-07T07:05:50.516Z,44.72
2023-04-07T07:09:03.318Z,43.20
2023-04-07T07:12:17.264Z,45.47
2023-04-07T07:15:29.983Z,42.10
2023-04-07T07:18:44.935Z,44.25
2023-04-07T07:21:57.608Z,41.08
2023-04-07T07:25:10.194Z,46.10
2023-04-07T07:28:23.789Z,39.08
2023-04-07T07:31:36.380Z,44.80
2023-04-07T07:34:49.020Z,44.65
2023-04-07T07:38:01.484Z,39.53
2023-04-07T07:41:14.092Z,34.92
2023-04-07T07:44:26.496Z,42.05
2023-04-07T07:47:39.197Z,40.45
2023-04-07T07:50:52.509Z,42.17
2023-04-07T07:54:05.201Z,43.67
2023-04-07T07:57:17.606Z,38.10
2023-04-07T08:00:30.488Z,39.05
2023-04-07T08:03:46.312Z,40.75
2023-04-07T08:06:58.929Z,39.85
2023-04-07T08:10:11.569Z,40.25
2023-04-07T08:13:23.927Z,38.17
2023-04-07T08:16:36.717Z,37.63
2023-04-07T08:19:49.211Z,36.35
2023-04-07T08:23:02.319Z,36.20
2023-04-07T08:26:14.706Z,34.72
2023-04-07T08:29:27.374Z,37.33
2023-04-07T08:32:43.970Z,38.80
2023-04-07T08:35:57.018Z,36.42
2023-04-07T08:39:09.382Z,32.88
2023-04-07T08:42:22.706Z,33.13
2023-04-07T08:45:35.294Z,33.40
2023-04-07T08:48:47.938Z,36.08
2023-04-07T08:52:00.619Z,39.92
2023-04-07T08:55:13.373Z,35.90
2023-04-07T08:58:25.935Z,40.10
2023-04-07T09:01:38.950Z,37.35
2023-04-07T09:04:51.616Z,35.70
2023-04-07T09:08:04.241Z,40.70
2023-04-07T09:11:16.609Z,38.13
2023-04-07T09:14:29.283Z,39.28
2023-04-07T09:17:41.672Z,35.70
2023-04-07T09:20:58.667Z,34.83
2023-04-07T09:24:29.472Z,37.90
2023-04-07T09:27:42.291Z,36.67
2023-04-07T09:30:54.980Z,40.12
2023-04-07T09:34:08.148Z,38.85
2023-04-07T09:37:22.213Z,39.85
2023-04-07T09:40:35.536Z,42.17
2023-04-07T09:43:48.473Z,42.47
2023-04-07T09:47:01.547Z,38.42
2023-04-07T09:50:13.936Z,38.55
2023-04-07T09:53:41.879Z,38.90
2023-04-07T09:56:54.241Z,38.35
2023-04-07T10:00:07.627Z,41.75
2023-04-07T10:03:25.183Z,40.35
2023-04-07T10:06:37.830Z,39.80
2023-04-07T10:09:50.566Z,40.03
2023-04-07T10:13:04.850Z,39.90
2023-04-07T10:16:17.246Z,42.50
2023-04-07T10:19:33.610Z,38.33
2023-04-07T10:22:45.969Z,39.03
2023-04-07T10:25:58.687Z,38.85
2023-04-07T10:29:11.987Z,39.22
2023-04-07T10:32:24.658Z,37.05
2023-04-07T10:36:06.283Z,39.67
2023-04-07T10:39:19.676Z,37.88
2023-04-07T10:42:37.721Z,40.38
2023-04-07T10:45:51.986Z,37.92
2023-04-07T10:49:10.323Z,35.55
2023-04-07T10:52:24.105Z,31.48
2023-04-07T10:55:45.734Z,30.60
2023-04-07T10:59:17.289Z,35.47
2023-04-07T11:02:29.763Z,35.53
2023-04-07T11:05:42.735Z,31.90
2023-04-07T11:08:57.864Z,32.85
2023-04-07T11:12:22.847Z,33.05
2023-04-07T11:15:37.887Z,34.03
2023-04-07T11:18:52.866Z,33.70
2023-04-07T11:25:36.956Z,34.95
2023-04-07T11:28:53.564Z,28.77
2023-04-07T11:32:06.252Z,32.30
2023-04-07T11:35:18.581Z,33.42
2023-04-07T11:38:38.389Z,33.30
2023-04-07T11:41:50.911Z,33.33
2023-04-07T11:45:04.665Z,32.92
2023-04-07T11:48:28.875Z,34.28
2023-04-07T11:51:43.511Z,33.95
2023-04-07T11:54:55.949Z,34.42
2023-04-07T11:58:12.134Z,33.47
2023-04-07T12:01:24.919Z,33.65
2023-04-07T12:04:40.250Z,29.75
2023-04-07T12:07:53.759Z,32.75
2023-04-07T12:11:06.441Z,37.20
2023-04-07T12:14:18.942Z,38.78
2023-04-07T12:17:31.626Z,37.55
2023-04-07T12:20:44.793Z,34.15
2023-04-07T12:23:57.441Z,35.95
2023-04-07T12:27:10.201Z,33.05
2023-04-07T12:30:22.903Z,33.45
2023-04-07T12:33:35.487Z,32.58
2023-04-07T12:36:48.387Z,36.45
2023-04-07T12:40:00.788Z,34.70
2023-04-07T12:43:13.575Z,27.27
2023-04-07T12:46:26.051Z,30.90
2023-04-07T12:49:38.713Z,32.80
2023-04-07T12:52:52.111Z,31.55
2023-04-07T12:56:04.968Z,32.97
2023-04-07T12:59:17.346Z,33.75
2023-04-07T13:02:30.514Z,30.83
2023-04-07T13:05:43.003Z,30.00
2023-04-07T13:08:56.511Z,33.40
2023-04-07T13:12:11.040Z,31.40
2023-04-07T13:15:23.721Z,37.28
2023-04-07T13:18:36.739Z,29.83
2023-04-07T13:21:49.414Z,34.20
2023-04-07T13:25:02.241Z,30.00
2023-04-07T13:28:18.544Z,30.48
2023-04-07T13:31:30.897Z,36.60
2023-04-07T13:34:44.094Z,35.15
2023-04-07T13:37:56.413Z,35.55
2023-04-07T13:41:10.052Z,35.80
2023-04-07T13:44:22.509Z,39.25
2023-04-07T13:47:35.505Z,34.70
2023-04-07T13:50:47.864Z,35.33
2023-04-07T13:54:00.638Z,33.70
2023-04-07T13:57:14.559Z,34.05
2023-04-07T14:00:27.253Z,36.88
2023-04-07T14:03:40.044Z,37.80
2023-04-07T14:06:52.489Z,32.47
2023-04-07T14:10:05.507Z,34.60
2023-04-07T14:13:17.845Z,33.45
2023-04-07T14:16:31.285Z,34.10
2023-04-07T14:19:43.667Z,39.25
2023-04-07T14:22:56.303Z,46.70
2023-04-07T14:26:11.934Z,57.00
2023-04-07T14:29:24.549Z,37.08
2023-04-07T14:32:36.945Z,34.63
2023-04-07T14:35:49.644Z,35.78
2023-04-07T14:39:02.088Z,35.78
2023-04-07T14:42:14.690Z,39.45
2023-04-07T14:45:27.017Z,30.70
2023-04-07T14:48:40.123Z,29.52
2023-04-07T14:51:52.418Z,30.25
2023-04-07T14:55:05.401Z,45.08
2023-04-07T14:58:17.754Z,39.92
2023-04-07T15:01:31.606Z,36.03
2023-04-07T15:04:44.208Z,37.40
2023-04-07T15:07:57.131Z,39.30
2023-04-07T15:11:09.617Z,47.47
2023-04-07T15:14:22.267Z,38.50
2023-04-07T15:17:43.039Z,42.88
2023-04-07T15:20:57.327Z,43.78
2023-04-07T15:24:09.678Z,38.72
2023-04-07T15:27:22.332Z,42.80
2023-04-07T15:30:37.125Z,42.70
2023-04-07T15:33:50.130Z,41.65
2023-04-07T15:37:03.977Z,41.53
2023-04-07T15:40:16.928Z,41.25
2023-04-07T15:43:29.290Z,43.05
2023-04-07T15:46:41.974Z,42.33
2023-04-07T15:49:54.296Z,46.28
2023-04-07T15:53:07.081Z,39.58
2023-04-07T15:56:19.528Z,37.55
2023-04-07T15:59:32.367Z,42.17
2023-04-07T16:02:46.946Z,42.03
2023-04-07T16:05:59.773Z,35.38
2023-04-07T16:09:12.124Z,34.90
2023-04-07T16:12:24.783Z,37.33
2023-04-07T16:15:40.872Z,36.97
2023-04-07T16:22:06.408Z,38.28
2023-04-07T16:25:19.088Z,34.55
2023-04-07T16:28:31.418Z,34.80
2023-04-07T16:31:44.517Z,29.27
2023-04-07T16:34:56.911Z,41.00
2023-04-07T16:38:09.644Z,37.33
2023-04-07T16:41:22.016Z,37.05
2023-04-07T16:44:35.282Z,46.33
2023-04-07T16:47:47.682Z,42.45
2023-04-07T16:51:00.536Z,43.50
2023-04-07T16:54:12.893Z,34.55
2023-04-07T16:57:25.609Z,34.10
2023-04-07T17:00:37.921Z,40.97
2023-04-07T17:03:51.570Z,40.97
2023-04-07T17:07:04.766Z,39.70
2023-04-07T17:10:17.465Z,46.22
2023-04-07T17:13:29.800Z,46.80
2023-04-07T17:16:42.452Z,50.22
2023-04-07T17:19:56.245Z,50.08
2023-04-07T17:23:10.570Z,54.60
2023-04-07T17:26:24.299Z,55.88
2023-04-07T17:29:36.976Z,46.63
2023-04-07T17:32:50.811Z,42.47
2023-04-07T17:36:03.681Z,43.22
2023-04-07T17:39:16.232Z,50.63
2023-04-07T17:42:28.943Z,51.42
2023-04-07T17:45:41.309Z,46.45
2023-04-07T17:48:55.081Z,48.50
2023-04-07T17:52:07.464Z,47.60
2023-04-07T17:55:20.075Z,52.67
2023-04-07T17:58:32.774Z,48.28
2023-04-07T18:01:45.588Z,44.58
2023-04-07T18:05:01.085Z,51.00
2023-04-07T18:08:13.524Z,48.35
2023-04-07T18:11:26.401Z,59.05
2023-04-07T18:14:38.833Z,48.95
2023-04-07T18:17:53.243Z,45.00
2023-04-07T18:21:06.723Z,55.70
2023-04-07T18:24:20.652Z,64.53
2023-04-07T18:27:32.994Z,60.60
2023-04-07T18:30:46.108Z,53.10
2023-04-07T18:33:58.577Z,58.85
2023-04-07T18:37:11.199Z,53.83
2023-04-07T18:40:23.745Z,44.38
2023-04-07T18:43:36.447Z,46.42
2023-04-07T18:46:48.856Z,44.63
2023-04-07T18:50:01.557Z,47.33
2023-04-07T18:53:15.962Z,40.58
2023-04-07T18:56:29.967Z,42.60
2023-04-07T18:59:42.532Z,44.45
2023-04-07T19:02:55.550Z,43.03
2023-04-07T19:06:08.130Z,48.63
2023-04-07T19:09:21.492Z,44.67
2023-04-07T19:12:33.835Z,45.47
2023-04-07T19:15:46.635Z,47.33
2023-04-07T19:18:59.106Z,48.30
2023-04-07T19:22:12.576Z,42.90
2023-04-07T19:25:24.964Z,45.15
2023-04-07T19:28:37.977Z,40.17
2023-04-07T19:31:53.007Z,44.53
2023-04-07T19:35:06.588Z,43.28
2023-04-07T19:38:19.310Z,41.13
2023-04-07T19:41:33.088Z,44.53
2023-04-07T19:44:45.528Z,43.40
2023-04-07T19:47:58.407Z,43.05
2023-04-07T19:51:10.777Z,44.97
2023-04-07T19:54:23.408Z,44.40
2023-04-07T19:57:36.001Z,40.55
2023-04-07T20:00:50.847Z,44.33
2023-04-07T20:04:03.802Z,39.50
2023-04-07T20:07:16.437Z,45.45
2023-04-07T20:10:29.218Z,42.65
2023-04-07T20:13:41.816Z,40.33
2023-04-07T20:16:54.651Z,43.00
2023-04-07T20:20:07.573Z,38.47
2023-04-07T20:23:22.210Z,40.15
2023-04-07T20:26:34.573Z,38.20
2023-04-07T20:29:47.339Z,35.88
2023-04-07T20:32:59.767Z,33.95
2023-04-07T20:36:12.689Z,32.00
2023-04-07T20:39:25.075Z,32.13
2023-04-07T20:42:38.269Z,33.45
2023-04-07T20:45:52.203Z,33.92
2023-04-07T20:49:07.623Z,30.52
2023-04-07T20:52:20.151Z,36.60
2023-04-07T20:55:32.860Z,35.78
2023-04-07T20:58:45.203Z,34.67
2023-04-07T21:01:57.945Z,30.85
2023-04-07T21:05:10.491Z,36.97
2023-04-07T21:08:24.478Z,33.55
2023-04-07T21:11:36.936Z,38.40
2023-04-07T21:14:49.549Z,33.53
2023-04-07T21:18:03.882Z,37.70
2023-04-07T21:21:16.773Z,37.63
2023-04-07T21:24:29.829Z,34.03
2023-04-07T21:27:42.532Z,34.63
2023-04-07T21:30:56.684Z,40.05
2023-04-07T21:34:09.426Z,36.80
2023-04-07T21:37:23.046Z,35.28
2023-04-07T21:40:35.801Z,36.42
2023-04-07T21:43:48.139Z,39.17
2023-04-07T21:47:00.819Z,33.22
2023-04-07T21:50:13.598Z,32.72
2023-04-07T21:53:26.686Z,29.48
2023-04-07T21:56:39.001Z,32.05
2023-04-07T21:59:51.660Z,35.22
2023-04-07T22:03:07.694Z,33.80
2023-04-07T22:06:20.843Z,37.25
2023-04-07T22:09:33.181Z,34.42
2023-04-07T22:12:45.850Z,28.62
2023-04-07T22:16:01.147Z,35.95
2023-04-07T22:19:13.871Z,33.58
2023-04-07T22:22:26.240Z,34.78
2023-04-07T22:25:38.865Z,33.53
2023-04-07T22:28:51.354Z,34.25
2023-04-07T22:32:04.247Z,32.50
2023-04-07T22:35:16.708Z,34.35
2023-04-07T22:38:29.367Z,30.37
2023-04-07T22:41:41.713Z,35.03
2023-04-07T22:44:54.383Z,36.08
2023-04-07T22:48:06.991Z,31.67
2023-04-07T22:51:19.635Z,38.08
2023-04-07T22:54:31.983Z,34.22
2023-04-07T22:57:44.677Z,34.65
2023-04-07T23:00:57.720Z,32.53
2023-04-07T23:04:10.732Z,32.03
2023-04-07T23:07:23.095Z,34.28
2023-04-07T23:10:36.254Z,32.53
2023-04-07T23:13:48.631Z,34.03
2023-04-07T23:17:01.383Z,32.63
2023-04-07T23:20:13.835Z,36.05
2023-04-07T23:23:27.150Z,32.28
2023-04-07T23:26:39.585Z,35.05
2023-04-07T23:29:52.349Z,33.28
2023-04-07T23:33:04.755Z,34.97
2023-04-07T23:36:17.508Z,35.60
2023-04-07T23:39:29.904Z,34.40
2023-04-07T23:42:42.518Z,32.75
2023-04-07T23:45:54.898Z,34.40
2023-04-07T23:49:07.614Z,33.28
2023-04-07T23:52:21.507Z,33.30
2023-04-07T23:55:34.254Z,31.83
2023-04-07T23:58:46.750Z,33.15
